Aviation Digital Data Service (ADDS)

Output produced by METARs form (0610 UTC 03 July 2022)
found at http://www.aviationweather.gov/metar/data/
 
LETO 030600Z 01003KT CAVOK 21/13 Q1019 NOSIG
TAF LETO 030500Z 0306/0406 VRB05KT CAVOK TX33/0316Z TN17/0406Z 
     PROB40 
     TEMPO 0311/0318 21010KT 
     PROB30 
     TEMPO 0311/0312 21013G27KT 
     PROB40 
     TEMPO 0311/0318 4500 TSRA SHRA SCT045CB
       
LEZG 030600Z 28007KT CAVOK 21/15 Q1019
TAF LEZG 030500Z 0306/0406 30008KT CAVOK TX35/0315Z TN20/0306Z 
     BECMG 0310/0312 11010KT 
     PROB40 
     TEMPO 0312/0318 12020G35KT 
     TEMPO 0312/0321 TSRA FEW050CB 
     BECMG 0320/0322 33008KT
       
LERT 030600Z 21007KT 170V240 9999 BKN022 21/18 Q1018 NOSIG
TAF LERT 030200Z 0303/0403 22008KT 9999 SCT020 TX25/0315Z TN21/0303Z 
     TEMPO 0303/0310 BKN010 
     TEMPO 0321/0403 BKN010
       
LELC 030600Z VRB02KT CAVOK 23/20 Q1017 NOSIG
TAF LELC 030500Z 0306/0406 01006KT 9999 FEW040 TX29/0315Z TN21/0405Z 
     BECMG 0307/0309 08010KT 
     BECMG 0318/0321 VRB02KT 
     PROB30 
     TEMPO 0402/0406 BKN010
       
LEAB 030600Z VRB06G17KT 9999 FEW036 22/14 Q1020 NOSIG
TAF AMD LEAB 030536Z 0306/0406 16010KT 9999 FEW045 TX35/0316Z TN19/0406Z 
     TEMPO 0306/0311 VRB05KT 
     PROB30 
     TEMPO 0312/0317 VRB15G25KT 4500 TSRA SHRA SCT045CB 
     PROB40 
     TEMPO 0313/0318 19015G30KT 
     PROB30 
     TEMPO 0315/0317 20020G45KT
       
LEBZ 030600Z 18003KT 150V220 CAVOK 23/18 Q1017
TAF LEBZ 030200Z 0303/0403 23008KT 9999 FEW030 TX34/0315Z TN21/0306Z
       
LEMO 030600Z 21006KT 170V240 9999 OVC010 21/18 Q1018 NOSIG
TAF LEMO 030200Z 0303/0403 24008KT 9999 SCT020 TX32/0315Z TN20/0303Z 
     TEMPO 0303/0309 BKN010
       
LESA 030600Z VRB01KT 9999 FEW080TCU 17/13 Q1019
TAF LESA 030200Z 0303/0403 VRB05KT 9999 FEW045 TX32/0316Z TN15/0305Z 
     TEMPO 0308/0320 22010KT 
     PROB30 
     TEMPO 0312/0321 22015G27KT 
     PROB40 
     TEMPO 0313/0320 FEW045TCU
       
GCLP 030600Z 34018KT 9999 FEW025 BKN035 22/16 Q1020 NOSIG
TAF GCLP 030200Z 0303/0403 01018KT 9999 BKN035 TX26/0314Z TN20/0306Z 
     PROB30 
     TEMPO 0312/0320 01022G32KT
       
LIED 030555Z 34003KT 9999 SCT040 23/18 Q1016
TAF LIED 030500Z 0306/0315 VRB03KT CAVOK 
     BECMG 0310/0312 15013KT
       
LIPR 030550Z AUTO VRB01KT 9999 NCD 26/16 Q1017
TAF LIPR 030500Z 0306/0406 VRB05KT CAVOK 
     BECMG 0310/0312 08010KT 
     BECMG 0317/0319 VRB05KT